Terminal Aerodrome Forecast
Issued by NWS

Home | Current Version | Previous Version | Text Only | Print | Product List | Glossary On
Versions: 1 2 3 4 5 6 7 8 9 10 11 12 13 14 15 16 17 18
000
FTUS42 KJAX 270200 AAB
TAFCRG
TAF AMD
KCRG 270200Z 2702/2724 VRB06KT P6SM VCTS BKN040CB BKN250
      TEMPO 2702/2703 VRB10G20KT 3SM SHRA OVC040
     FM270300 20003KT P6SM FEW040 SCT250
     FM271400 23005KT P6SM SCT030
     FM271800 14009KT P6SM SCT050=

USA.gov is the U.S. government's official web portal to all federal, state and local government web resources and services.